Página principal
METAR-TAF:

METAR-TAF

Aeroportos :

Gibraltar, Gibraltar

Aeroporto de Gibraltar

latitude: 36-09N, longitude: 005-21W, altura: 5 m

Observação actual do tempo

O boletim foi feito há 1 hora e 2 minutos, às 22:50 UTC
Vento 2 kt de es-nordeste
Temperatura 24°C
Humidade 89%
Pressão 1015 hPa
Visibilidade 10 km ou mais

METAR: LXGB 182250Z AUTO 07002KT 9999 // NCD 24/22 Q1015

Hora: 01:52 (23:52 UTC)

Previsão

O boletim foi feito há 7 horas e 9 minutos, às 16:43 UTC
Previsão válida de 18 às 18 UTC a 18 às 22 UTC
Vento 10 kt de este
Visibilidade 10 km ou mais
Poucas nuvensa uma altura de 1500 ft
Probabilidade 40% :
Temporariamente
de 18 às 18 UTC a 18 às 22 UTC
Visibilidade: 6000 m
bruma

TAF: LXGB 181643Z 1818/1822 08010KT 9999 FEW015 PROB40 TEMPO 1818/1822 6000 HZ

Observações e previsões do tempo de mais de 4000 aeroportos (mensagens METAR e TAF).

As estações disponíveis são os pontos amarelos e vermelhos sobre o mapa.

Mova o rato sobre o mapa para ver o nome da estação.

Depois clique no ponto para visualizar as observações e previsões meteorológicas.

Para alterar o mapa : clique nos botões verdes com uma cruz preta para aumentar o zoom; no botão verde com uma pitada de zoom; ou nas setas verdes para mapas adjacentes.


METAR-TAF: